Time;durP1;ratioP1;P1;durP2;ratioP2;P2;SDS_P1;SDS_P2;PMS_P1;PMS_P2;Temp;Humidity;BMP_temperature;BMP_pressure;BME280_temperature;BME280_humidity;BME280_pressure;Samples;Min_cycle;Max_cycle;Signal;HPM_P1;HPM_P2
2023/08/22 00:00:33;;;;;;;6.70;5.82;;;31.20;71.10;;;;;;5013712;28;20018;-81
2023/08/22 00:02:59;;;;;;;9.55;6.75;;;31.20;71.20;;;;;;5013928;28;20121;-81
2023/08/22 00:05:26;;;;;;;8.70;6.32;;;31.20;71.20;;;;;;5013426;28;20070;-80
2023/08/22 00:07:53;;;;;;;7.40;6.50;;;31.20;71.30;;;;;;5013201;28;20030;-81
2023/08/22 00:10:19;;;;;;;8.80;6.00;;;31.20;71.30;;;;;;4995722;28;20030;-81
2023/08/22 00:12:45;;;;;;;9.10;6.13;;;31.20;71.20;;;;;;5013160;28;20045;-81
2023/08/22 00:15:12;;;;;;;6.78;5.53;;;31.20;71.40;;;;;;5013174;28;20513;-81
2023/08/22 00:17:41;;;;;;;8.38;6.40;;;31.20;72.00;;;;;;5001383;28;20084;-81
2023/08/22 00:20:08;;;;;;;9.13;6.70;;;31.20;71.60;;;;;;4993687;28;20026;-81
2023/08/22 00:22:35;;;;;;;7.30;6.53;;;31.10;71.70;;;;;;4993667;28;20023;-81
2023/08/22 00:25:02;;;;;;;7.43;6.68;;;31.00;71.60;;;;;;4993966;28;20415;-81
2023/08/22 00:27:28;;;;;;;8.45;5.47;;;31.00;71.90;;;;;;5008465;28;20080;-81
2023/08/22 00:29:54;;;;;;;6.95;6.18;;;30.90;72.00;;;;;;4976597;28;20030;-81
2023/08/22 00:32:20;;;;;;;6.57;5.97;;;30.90;72.20;;;;;;4993377;28;20026;-81
2023/08/22 00:34:46;;;;;;;7.25;6.15;;;30.90;72.20;;;;;;4993608;28;20069;-80
2023/08/22 00:37:19;;;;;;;6.85;6.15;;;30.90;72.30;;;;;;4993595;28;20035;-80
2023/08/22 00:39:45;;;;;;;7.80;6.35;;;30.90;72.20;;;;;;4993293;28;20030;-81
2023/08/22 00:42:11;;;;;;;7.63;6.28;;;30.90;72.40;;;;;;4993445;28;20042;-81
2023/08/22 00:44:36;;;;;;;7.05;5.75;;;30.90;72.40;;;;;;4993136;28;20331;-81
2023/08/22 00:47:03;;;;;;;7.13;6.53;;;30.90;72.50;;;;;;4998468;28;20038;-81
2023/08/22 00:49:29;;;;;;;9.35;5.93;;;30.90;72.60;;;;;;5013118;28;20033;-81
2023/08/22 00:51:58;;;;;;;8.48;6.13;;;30.90;72.40;;;;;;5013037;28;20025;-81
2023/08/22 00:54:26;;;;;;;6.25;5.70;;;30.80;72.40;;;;;;4994656;28;20442;-81
2023/08/22 00:56:53;;;;;;;7.05;5.93;;;30.80;72.50;;;;;;5006345;28;20045;-81
2023/08/22 00:59:20;;;;;;;7.32;6.55;;;30.80;72.60;;;;;;5007091;28;20093;-81
2023/08/22 01:01:46;;;;;;;7.72;6.40;;;30.70;72.50;;;;;;4993808;28;20041;-81
2023/08/22 01:04:12;;;;;;;7.47;5.45;;;30.60;72.80;;;;;;4993461;28;20050;-81
2023/08/22 01:07:04;;;;;;;8.35;6.55;;;30.50;72.90;;;;;;4993509;28;20026;-80
2023/08/22 01:09:59;;;;;;;7.88;6.72;;;30.40;73.40;;;;;;5007988;28;20048;-81
2023/08/22 01:12:46;;;;;;;7.20;6.38;;;30.30;74.00;;;;;;5014730;28;20077;-81
2023/08/22 01:15:25;;;;;;;8.23;6.32;;;30.20;74.20;;;;;;5016251;28;20045;-81
2023/08/22 01:17:58;;;;;;;7.68;5.97;;;30.20;74.30;;;;;;5016661;28;20026;-80
2023/08/22 01:20:25;;;;;;;7.25;6.10;;;30.10;74.20;;;;;;5015943;28;20022;-80
2023/08/22 01:22:51;;;;;;;7.13;6.43;;;30.10;74.20;;;;;;4979310;28;20034;-80
2023/08/22 01:25:17;;;;;;;10.05;6.70;;;30.10;74.40;;;;;;4996615;28;20467;-81
2023/08/22 01:27:43;;;;;;;9.23;6.80;;;30.20;74.50;;;;;;5008415;28;20422;-80
2023/08/22 01:30:21;;;;;;;9.75;6.95;;;30.20;74.40;;;;;;5016684;28;20025;-80
2023/08/22 01:32:50;;;;;;;8.13;7.28;;;30.20;74.50;;;;;;5013997;28;20487;-81
2023/08/22 01:35:20;;;;;;;9.20;6.63;;;30.30;74.50;;;;;;5015891;28;20450;-81
2023/08/22 01:37:47;;;;;;;8.38;7.30;;;30.30;74.60;;;;;;4998777;28;20418;-80
2023/08/22 01:40:14;;;;;;;7.10;6.40;;;30.20;74.70;;;;;;4996565;28;20034;-80
2023/08/22 01:42:40;;;;;;;7.15;6.40;;;30.20;74.80;;;;;;4996144;28;20053;-80
2023/08/22 01:45:05;;;;;;;7.75;6.72;;;30.20;74.90;;;;;;4996032;28;20061;-80
2023/08/22 01:47:31;;;;;;;8.52;7.20;;;30.20;75.00;;;;;;4996660;28;20034;-80
2023/08/22 01:49:57;;;;;;;9.65;6.30;;;30.20;75.00;;;;;;4996452;28;20058;-81
2023/08/22 01:52:22;;;;;;;8.88;7.10;;;30.20;75.10;;;;;;4995912;28;20022;-80
2023/08/22 01:54:49;;;;;;;10.15;7.00;;;30.20;75.20;;;;;;4995613;28;20096;-81
2023/08/22 01:57:14;;;;;;;8.38;6.50;;;30.20;75.30;;;;;;4996047;28;20475;-80
2023/08/22 01:59:40;;;;;;;7.70;6.30;;;30.20;75.80;;;;;;5013827;28;20037;-80
2023/08/22 02:02:07;;;;;;;9.57;7.68;;;30.20;75.30;;;;;;4997746;28;20022;-80
2023/08/22 02:04:33;;;;;;;7.38;6.68;;;30.10;75.40;;;;;;5015378;28;20072;-81
2023/08/22 02:06:59;;;;;;;11.05;7.00;;;30.10;75.40;;;;;;5002206;28;20479;-80
2023/08/22 02:09:25;;;;;;;7.50;6.80;;;30.10;75.40;;;;;;4995669;28;20534;-81
2023/08/22 02:11:52;;;;;;;8.98;6.60;;;30.10;75.60;;;;;;4996115;28;20026;-80
2023/08/22 02:14:17;;;;;;;10.05;6.90;;;30.10;75.70;;;;;;4995909;28;20034;-81
2023/08/22 02:16:43;;;;;;;7.35;6.65;;;30.10;75.70;;;;;;5007566;28;20041;-81
2023/08/22 02:19:10;;;;;;;7.30;6.43;;;30.00;75.80;;;;;;5015711;28;20030;-80
2023/08/22 02:21:35;;;;;;;8.18;6.63;;;30.00;76.00;;;;;;4995765;28;20014;-81
2023/08/22 02:24:01;;;;;;;8.88;7.38;;;29.90;76.00;;;;;;4995988;28;20386;-81
2023/08/22 02:26:26;;;;;;;12.35;7.20;;;29.90;76.10;;;;;;5004729;28;20538;-81
2023/08/22 02:28:53;;;;;;;8.18;7.38;;;29.90;76.30;;;;;;5015344;28;20462;-81
2023/08/22 02:31:27;;;;;;;8.18;7.35;;;29.90;76.20;;;;;;5015184;28;20030;-81
2023/08/22 02:33:53;;;;;;;8.07;7.20;;;29.90;76.30;;;;;;5015486;28;20033;-81
2023/08/22 02:36:19;;;;;;;8.65;6.82;;;29.90;76.20;;;;;;4996632;28;20022;-81
2023/08/22 02:38:45;;;;;;;9.27;6.95;;;29.90;76.30;;;;;;5015255;28;20437;-81
2023/08/22 02:41:11;;;;;;;7.32;6.63;;;29.90;76.50;;;;;;5015138;28;20026;-80
2023/08/22 02:43:36;;;;;;;7.85;7.05;;;29.90;76.50;;;;;;5015014;28;20181;-81
2023/08/22 02:46:02;;;;;;;8.35;6.93;;;29.90;76.60;;;;;;5011533;28;20101;-81
2023/08/22 02:48:28;;;;;;;9.15;8.00;;;29.90;76.70;;;;;;4978141;28;20399;-81
2023/08/22 02:50:54;;;;;;;7.75;6.95;;;29.90;76.70;;;;;;4995011;28;20081;-80
2023/08/22 02:53:20;;;;;;;8.13;7.30;;;29.80;76.70;;;;;;4995092;28;20475;-81
2023/08/22 02:55:49;;;;;;;7.90;6.78;;;29.80;76.70;;;;;;4977827;28;20030;-80
2023/08/22 02:58:14;;;;;;;9.10;7.40;;;29.80;76.70;;;;;;4995124;28;20464;-81
2023/08/22 03:00:40;;;;;;;8.02;6.90;;;29.80;76.70;;;;;;5000144;28;20033;-81
2023/08/22 03:05:35;;;;;;;8.13;7.00;;;29.80;76.80;;;;;;5375112;23;20050;-80
2023/08/22 03:08:03;;;;;;;8.02;7.10;;;29.70;76.70;;;;;;5013823;28;20030;-80
2023/08/22 03:10:28;;;;;;;8.23;7.38;;;29.70;76.90;;;;;;4996518;28;20088;-80
2023/08/22 03:12:54;;;;;;;7.57;6.57;;;29.70;76.90;;;;;;5014139;28;20026;-80
2023/08/22 03:15:23;;;;;;;11.77;7.20;;;29.70;76.90;;;;;;5014168;28;20021;-76
2023/08/22 03:17:49;;;;;;;9.68;7.50;;;29.70;77.10;;;;;;5013455;28;20354;-76
2023/08/22 03:20:16;;;;;;;10.57;7.22;;;29.70;77.10;;;;;;4996318;28;20092;-76
2023/08/22 03:22:42;;;;;;;11.38;8.10;;;29.60;77.20;;;;;;4996152;28;20497;-77
2023/08/22 03:25:07;;;;;;;8.75;7.93;;;29.60;77.40;;;;;;5013645;28;20393;-76
2023/08/22 03:27:33;;;;;;;8.63;7.07;;;29.50;77.20;;;;;;5405384;23;20414;-79
2023/08/22 03:29:59;;;;;;;8.63;7.20;;;29.50;77.40;;;;;;4993995;28;20034;-78
2023/08/22 03:32:25;;;;;;;10.85;7.78;;;29.50;77.50;;;;;;5067342;23;20473;-81
2023/08/22 03:34:51;;;;;;;9.15;7.75;;;29.40;77.60;;;;;;4976413;28;20034;-82
2023/08/22 03:37:29;;;;;;;9.65;7.57;;;29.40;77.50;;;;;;4994035;28;20034;-81
2023/08/22 03:39:54;;;;;;;8.85;7.57;;;29.40;77.40;;;;;;4993678;28;20026;-81
2023/08/22 03:42:20;;;;;;;9.48;7.28;;;29.40;77.50;;;;;;4993760;28;20436;-81
2023/08/22 03:44:46;;;;;;;9.57;8.48;;;29.40;77.40;;;;;;4976522;28;20441;-82
2023/08/22 03:52:41;;;;;;;8.82;6.93;;;29.40;77.60;;;;;;5560840;23;20061;-78
2023/08/22 03:55:07;;;;;;;7.95;7.25;;;29.40;77.50;;;;;;5013334;28;20018;-78
2023/08/22 04:00:11;;;;;;;7.93;7.20;;;29.30;77.40;;;;;;4820970;26;20580;-81
2023/08/22 04:02:37;;;;;;;8.25;7.35;;;29.40;77.40;;;;;;4993450;28;20391;-81
2023/08/22 04:05:03;;;;;;;8.30;7.50;;;29.40;77.30;;;;;;4976278;28;20031;-81
2023/08/22 04:10:13;;;;;;;8.40;6.57;;;29.40;76.80;;;;;;5314893;23;20065;-77
2023/08/22 04:12:38;;;;;;;7.75;6.93;;;29.40;76.60;;;;;;5012986;28;20026;-77
2023/08/22 04:15:04;;;;;;;7.32;6.63;;;29.40;76.70;;;;;;4995466;28;20065;-77
2023/08/22 04:20:16;;;;;;;8.50;7.70;;;29.40;76.70;;;;;;5034551;23;20062;-81
2023/08/22 04:22:42;;;;;;;7.90;7.10;;;29.30;76.60;;;;;;4993216;28;20022;-81
2023/08/22 04:25:11;;;;;;;7.82;6.70;;;29.30;76.60;;;;;;5013215;28;20034;-81
2023/08/22 04:27:38;;;;;;;9.98;7.20;;;29.30;76.80;;;;;;5012721;28;20025;-80
2023/08/22 04:30:05;;;;;;;7.68;6.90;;;29.30;76.70;;;;;;5012828;28;20474;-80
2023/08/22 04:32:50;;;;;;;7.43;6.45;;;29.30;76.70;;;;;;5012596;28;20374;-81
2023/08/22 04:35:16;;;;;;;7.63;6.93;;;29.30;76.70;;;;;;5012524;28;20049;-80
2023/08/22 04:37:41;;;;;;;8.18;6.35;;;29.30;76.80;;;;;;5012253;28;20438;-80
2023/08/22 04:40:07;;;;;;;8.40;7.03;;;29.30;76.80;;;;;;5012556;28;20478;-82
2023/08/22 04:45:09;;;;;;;8.35;7.13;;;29.30;76.80;;;;;;5732500;23;20073;-81
2023/08/22 04:47:35;;;;;;;7.13;6.45;;;29.30;76.70;;;;;;4996915;28;20181;-81
2023/08/22 04:50:00;;;;;;;7.47;6.80;;;29.30;76.80;;;;;;5043348;23;20178;-78
2023/08/22 04:52:26;;;;;;;8.43;6.85;;;29.30;76.70;;;;;;4996857;28;20029;-78
2023/08/22 04:54:55;;;;;;;11.15;6.88;;;29.30;76.70;;;;;;4997585;28;20030;-78
2023/08/22 04:57:27;;;;;;;8.23;7.32;;;29.30;76.60;;;;;;4979636;28;20068;-78
2023/08/22 04:59:53;;;;;;;8.20;7.40;;;29.30;76.60;;;;;;5016619;23;20064;-77
2023/08/22 05:02:20;;;;;;;9.27;6.72;;;29.30;76.90;;;;;;4997664;28;20136;-77
2023/08/22 05:04:46;;;;;;;7.95;7.15;;;29.30;76.80;;;;;;4996373;28;20363;-77
2023/08/22 05:07:12;;;;;;;7.05;6.32;;;29.30;76.70;;;;;;5014320;28;20044;-77
2023/08/22 05:09:37;;;;;;;11.20;7.10;;;29.30;76.60;;;;;;5015122;28;20033;-77
2023/08/22 05:12:03;;;;;;;10.43;7.03;;;29.30;76.50;;;;;;5016606;28;20034;-77
2023/08/22 05:14:32;;;;;;;7.93;7.07;;;29.30;76.50;;;;;;5015038;28;20362;-77
2023/08/22 05:16:58;;;;;;;8.23;6.97;;;29.30;76.60;;;;;;5000550;28;20042;-77
2023/08/22 05:19:23;;;;;;;7.70;6.75;;;29.30;76.60;;;;;;4996831;28;20037;-77
2023/08/22 05:21:49;;;;;;;8.70;6.75;;;29.20;76.60;;;;;;4996738;28;20030;-77
2023/08/22 05:24:15;;;;;;;10.27;6.30;;;29.30;76.40;;;;;;5006661;28;20030;-77
2023/08/22 05:26:40;;;;;;;7.30;6.60;;;29.20;76.40;;;;;;5016373;28;20386;-77
2023/08/22 05:29:06;;;;;;;8.05;6.68;;;29.20;76.30;;;;;;5016446;28;20033;-77
2023/08/22 05:31:32;;;;;;;12.43;6.53;;;29.30;76.30;;;;;;5007543;28;20113;-77
2023/08/22 05:33:58;;;;;;;9.38;6.38;;;29.30;76.20;;;;;;5012340;28;20022;-81
2023/08/22 05:36:24;;;;;;;6.90;6.30;;;29.30;76.30;;;;;;5009338;28;20042;-81
2023/08/22 05:38:50;;;;;;;7.25;6.43;;;29.30;76.00;;;;;;4990651;28;20029;-81
2023/08/22 05:41:16;;;;;;;8.75;6.00;;;29.30;75.90;;;;;;5016179;28;20033;-81
2023/08/22 05:43:42;;;;;;;6.35;5.75;;;29.30;75.80;;;;;;5011115;28;20015;-81
2023/08/22 05:46:08;;;;;;;7.32;6.32;;;29.30;75.50;;;;;;4996428;28;20034;-81
2023/08/22 05:48:33;;;;;;;9.07;6.95;;;29.30;75.50;;;;;;4996634;28;20048;-77
2023/08/22 05:51:02;;;;;;;6.20;5.60;;;29.30;75.40;;;;;;4996580;28;20449;-77
2023/08/22 05:53:27;;;;;;;7.70;6.20;;;29.30;75.30;;;;;;4998379;28;20022;-77
2023/08/22 05:55:53;;;;;;;6.57;5.97;;;29.30;75.30;;;;;;4996714;28;20397;-77
2023/08/22 05:58:19;;;;;;;8.35;7.20;;;29.40;75.60;;;;;;4995937;28;20484;-77
2023/08/22 06:00:45;;;;;;;7.45;6.55;;;29.40;75.90;;;;;;4978509;28;20026;-77
2023/08/22 06:03:10;;;;;;;6.63;5.93;;;29.40;75.70;;;;;;4996335;28;20038;-77
2023/08/22 06:05:36;;;;;;;6.18;5.60;;;29.40;75.30;;;;;;4997227;28;20056;-77
2023/08/22 06:08:02;;;;;;;6.75;6.13;;;29.40;74.90;;;;;;4996260;28;20514;-77
2023/08/22 06:10:28;;;;;;;7.00;6.40;;;29.40;74.90;;;;;;4995897;28;20496;-77
2023/08/22 06:12:53;;;;;;;8.45;6.18;;;29.40;75.00;;;;;;4980370;28;20027;-77
2023/08/22 06:15:19;;;;;;;8.32;6.18;;;29.50;75.30;;;;;;4999599;28;20109;-77
2023/08/22 06:17:44;;;;;;;7.57;6.78;;;29.50;75.40;;;;;;4995702;28;20509;-77
2023/08/22 06:20:10;;;;;;;6.53;5.90;;;29.50;75.30;;;;;;4995144;28;20022;-77
2023/08/22 06:22:36;;;;;;;8.00;6.22;;;29.50;75.10;;;;;;4995900;28;20506;-77
2023/08/22 06:25:04;;;;;;;7.45;6.28;;;29.50;74.90;;;;;;4995851;28;20379;-77
2023/08/22 06:27:31;;;;;;;6.72;5.88;;;29.50;74.90;;;;;;5005499;28;20033;-77
2023/08/22 06:29:56;;;;;;;5.88;5.28;;;29.50;75.00;;;;;;4995373;28;20415;-77
2023/08/22 06:32:22;;;;;;;7.97;6.32;;;29.60;75.20;;;;;;4995556;28;20030;-77
2023/08/22 06:34:48;;;;;;;6.55;5.85;;;29.60;75.20;;;;;;5008032;28;20034;-77
2023/08/22 06:37:14;;;;;;;8.95;6.18;;;29.60;75.20;;;;;;4999163;28;20030;-77
2023/08/22 06:39:40;;;;;;;6.72;6.05;;;29.70;75.20;;;;;;4998076;28;20509;-77
2023/08/22 06:42:06;;;;;;;6.90;6.30;;;29.70;75.30;;;;;;5014815;28;20018;-77
2023/08/22 06:44:32;;;;;;;6.97;5.68;;;29.70;75.30;;;;;;5007823;28;20446;-77
2023/08/22 06:46:58;;;;;;;6.70;5.93;;;29.80;75.30;;;;;;5006357;28;20101;-77
2023/08/22 06:49:23;;;;;;;6.38;5.82;;;29.80;75.10;;;;;;4995011;28;20457;-77
2023/08/22 06:51:49;;;;;;;7.93;5.85;;;29.80;74.90;;;;;;4963527;28;20054;-77
2023/08/22 06:54:15;;;;;;;6.70;6.00;;;29.90;75.00;;;;;;4958066;28;20506;-77
2023/08/22 06:56:40;;;;;;;6.55;5.85;;;29.90;74.80;;;;;;5000433;28;20068;-77
2023/08/22 06:59:06;;;;;;;6.13;5.53;;;29.90;75.00;;;;;;5014311;28;20046;-76
2023/08/22 07:01:32;;;;;;;6.00;5.40;;;29.90;74.90;;;;;;5012397;28;20030;-81
2023/08/22 07:03:58;;;;;;;6.65;5.97;;;29.90;74.80;;;;;;5014198;28;20081;-81
2023/08/22 07:06:24;;;;;;;6.18;5.57;;;30.00;74.80;;;;;;5011885;28;20037;-81
2023/08/22 07:08:51;;;;;;;6.70;6.00;;;30.10;74.80;;;;;;5000937;28;20030;-81
2023/08/22 07:11:16;;;;;;;6.82;6.13;;;30.10;74.70;;;;;;5000649;28;20019;-81
2023/08/22 07:13:42;;;;;;;6.93;5.95;;;30.10;74.50;;;;;;4984904;28;20494;-80
2023/08/22 07:16:08;;;;;;;6.65;5.95;;;30.20;74.40;;;;;;4989032;28;20031;-81
2023/08/22 07:18:33;;;;;;;7.00;6.30;;;30.30;74.30;;;;;;5005013;28;20041;-81
2023/08/22 07:21:07;;;;;;;8.38;5.95;;;30.30;73.90;;;;;;5005831;28;20026;-80
2023/08/22 07:23:33;;;;;;;7.60;5.32;;;30.40;73.80;;;;;;5004384;28;20033;-80
2023/08/22 07:25:58;;;;;;;6.70;6.00;;;30.40;73.70;;;;;;5003095;28;20033;-81
2023/08/22 07:28:24;;;;;;;6.75;5.10;;;30.50;73.40;;;;;;5000240;28;20033;-80
2023/08/22 07:30:50;;;;;;;5.75;5.18;;;30.50;73.10;;;;;;5004084;28;20367;-80
2023/08/22 07:33:16;;;;;;;5.60;5.10;;;30.60;73.00;;;;;;5001732;28;20361;-81
2023/08/22 07:35:44;;;;;;;12.05;5.30;;;30.70;72.90;;;;;;5000081;28;20038;-80
2023/08/22 07:38:10;;;;;;;6.95;5.28;;;30.80;72.80;;;;;;5001422;28;20030;-80
2023/08/22 07:40:43;;;;;;;7.15;5.78;;;30.80;72.80;;;;;;4975509;28;20355;-81
2023/08/22 07:43:09;;;;;;;7.10;5.40;;;30.90;72.80;;;;;;4975537;28;20022;-80
2023/08/22 07:45:34;;;;;;;8.93;7.80;;;31.00;72.90;;;;;;4999136;28;20081;-80
2023/08/22 07:48:00;;;;;;;6.90;5.70;;;31.00;72.10;;;;;;5006036;28;20093;-77
2023/08/22 07:50:26;;;;;;;9.77;5.32;;;31.00;72.60;;;;;;4997299;28;20030;-77
2023/08/22 07:52:52;;;;;;;9.20;5.93;;;31.00;72.80;;;;;;4994208;28;20358;-77
2023/08/22 07:55:17;;;;;;;6.03;5.38;;;31.10;72.90;;;;;;4993310;28;20340;-77
2023/08/22 07:57:43;;;;;;;5.88;5.10;;;31.20;72.70;;;;;;5012391;28;20434;-77
2023/08/22 08:00:11;;;;;;;6.53;5.18;;;31.30;72.80;;;;;;4996765;28;20502;-77
2023/08/22 08:02:40;;;;;;;5.97;5.38;;;31.30;72.80;;;;;;4992548;28;20022;-77
2023/08/22 08:05:06;;;;;;;6.28;5.68;;;31.40;72.70;;;;;;4976022;28;20058;-77
2023/08/22 08:07:32;;;;;;;6.40;5.13;;;31.50;73.00;;;;;;4993097;28;20026;-76
2023/08/22 08:09:58;;;;;;;7.70;5.57;;;31.60;72.40;;;;;;4993706;28;20076;-77
2023/08/22 08:12:24;;;;;;;5.28;4.78;;;31.50;68.40;;;;;;4975934;28;20037;-77
2023/08/22 08:14:50;;;;;;;5.90;4.78;;;31.60;70.00;;;;;;4993851;28;20069;-77
2023/08/22 08:17:19;;;;;;;5.90;5.30;;;31.70;69.80;;;;;;4993461;28;20030;-77
2023/08/22 08:19:45;;;;;;;5.53;5.03;;;31.80;69.30;;;;;;5000023;28;20037;-77
2023/08/22 08:22:11;;;;;;;6.32;5.43;;;31.90;69.40;;;;;;4999748;28;20026;-77
2023/08/22 08:24:38;;;;;;;8.27;4.97;;;32.00;68.00;;;;;;5014542;28;20025;-77
2023/08/22 08:27:04;;;;;;;10.18;5.72;;;32.00;68.70;;;;;;5019872;28;20113;-77
2023/08/22 08:29:29;;;;;;;5.40;4.57;;;32.00;68.10;;;;;;5019982;28;20026;-77
2023/08/22 08:31:56;;;;;;;9.52;5.30;;;32.10;69.00;;;;;;5019280;28;20034;-77
2023/08/22 08:34:23;;;;;;;5.38;4.82;;;32.20;68.80;;;;;;5019721;28;20029;-77
2023/08/22 08:36:52;;;;;;;5.43;4.72;;;32.30;69.00;;;;;;4997932;28;20040;-77
2023/08/22 08:39:17;;;;;;;7.83;5.17;;;32.40;69.20;;;;;;5011408;28;20029;-77
2023/08/22 08:41:54;;;;;;;4.95;4.47;;;32.50;68.90;;;;;;5018907;28;20018;-77
2023/08/22 08:44:20;;;;;;;6.60;5.63;;;32.60;67.90;;;;;;5000185;28;20081;-77
2023/08/22 08:46:47;;;;;;;6.78;5.47;;;32.60;66.90;;;;;;4999780;28;20033;-77
2023/08/22 08:49:15;;;;;;;5.45;4.40;;;32.70;67.30;;;;;;5000125;28;20084;-77
2023/08/22 08:51:42;;;;;;;6.15;5.28;;;32.80;67.40;;;;;;4982389;28;20026;-76
2023/08/22 08:54:09;;;;;;;6.57;5.25;;;32.90;67.30;;;;;;4999693;28;20076;-76
2023/08/22 08:56:35;;;;;;;5.57;5.07;;;33.00;67.30;;;;;;5005719;28;20375;-76
2023/08/22 08:59:00;;;;;;;5.45;4.95;;;33.10;67.10;;;;;;4999662;28;20050;-76
2023/08/22 09:01:26;;;;;;;5.25;4.80;;;33.10;66.50;;;;;;4999328;28;20033;-77
2023/08/22 09:03:52;;;;;;;5.32;4.88;;;33.20;66.30;;;;;;4999268;28;20026;-81
2023/08/22 09:06:20;;;;;;;5.78;5.13;;;33.30;66.40;;;;;;4993939;28;20124;-77
2023/08/22 09:09:03;;;;;;;7.68;4.82;;;33.40;65.90;;;;;;5000617;28;20069;-80
2023/08/22 09:11:30;;;;;;;6.07;5.35;;;33.50;64.20;;;;;;5019150;28;20149;-80
2023/08/22 09:13:56;;;;;;;5.13;4.63;;;33.50;65.00;;;;;;5013888;28;20500;-80
2023/08/22 09:16:26;;;;;;;5.07;4.45;;;33.60;65.00;;;;;;5016761;28;20022;-80
2023/08/22 09:18:57;;;;;;;4.75;4.28;;;33.70;64.70;;;;;;5019857;28;20065;-80
2023/08/22 09:21:23;;;;;;;4.88;4.47;;;33.80;64.20;;;;;;5002587;28;20062;-80
2023/08/22 09:23:49;;;;;;;6.15;4.35;;;33.80;63.50;;;;;;5002815;28;20133;-79
2023/08/22 09:26:24;;;;;;;5.28;4.78;;;33.90;63.30;;;;;;4999297;28;20474;-80
2023/08/22 09:28:50;;;;;;;5.45;4.78;;;34.00;63.90;;;;;;4999333;28;20026;-80
2023/08/22 09:31:23;;;;;;;4.72;4.25;;;34.00;63.10;;;;;;4995195;28;20048;-80
2023/08/22 09:33:50;;;;;;;5.18;4.47;;;34.10;63.00;;;;;;4996317;28;20030;-80
2023/08/22 09:36:20;;;;;;;6.90;5.40;;;34.20;62.40;;;;;;4995960;28;20058;-80
2023/08/22 09:38:58;;;;;;;4.78;4.38;;;34.30;61.70;;;;;;4996247;28;20031;-80
2023/08/22 09:41:26;;;;;;;5.07;4.68;;;34.30;62.20;;;;;;4995929;28;20077;-80
2023/08/22 09:43:54;;;;;;;6.07;4.47;;;34.40;62.20;;;;;;4996500;28;20105;-81
2023/08/22 09:46:24;;;;;;;7.47;4.70;;;34.50;60.90;;;;;;5008097;28;20022;-81
2023/08/22 09:48:50;;;;;;;;;;;34.60;59.40;;;;;;5002413;28;20035;-81
2023/08/22 09:51:19;;;;;;;5.45;4.10;;;34.60;58.70;;;;;;4996355;28;19913;-81
2023/08/22 09:53:50;;;;;;;5.50;4.38;;;34.70;60.20;;;;;;4996223;28;20026;-81
2023/08/22 09:56:20;;;;;;;4.60;4.20;;;34.80;60.00;;;;;;4995723;28;20467;-81
2023/08/22 09:58:46;;;;;;;5.10;4.28;;;34.90;59.90;;;;;;4995548;28;20066;-80
2023/08/22 10:01:16;;;;;;;5.15;4.45;;;35.10;60.00;;;;;;4995822;28;20371;-81
2023/08/22 10:03:49;;;;;;;4.32;3.92;;;35.30;59.80;;;;;;4995828;28;20026;-81
2023/08/22 10:06:15;;;;;;;6.25;4.63;;;35.40;59.50;;;;;;4995510;28;20057;-81
2023/08/22 10:08:43;;;;;;;4.80;4.30;;;35.50;59.60;;;;;;4998107;28;20029;-80
2023/08/22 10:11:11;;;;;;;4.40;4.00;;;35.60;59.80;;;;;;4996350;28;20393;-82
2023/08/22 10:13:38;;;;;;;4.25;3.92;;;35.80;59.60;;;;;;4995495;28;20027;-80
2023/08/22 10:16:04;;;;;;;5.35;4.43;;;35.90;59.70;;;;;;4995585;28;20068;-80
2023/08/22 10:18:31;;;;;;;9.32;5.28;;;35.90;59.90;;;;;;4995509;28;20026;-80
2023/08/22 10:20:57;;;;;;;5.57;4.40;;;36.00;59.20;;;;;;4995327;28;20109;-80
2023/08/22 10:23:44;;;;;;;6.22;4.40;;;36.10;58.80;;;;;;4995238;28;20022;-80
2023/08/22 10:26:10;;;;;;;4.55;3.80;;;36.20;57.40;;;;;;5007177;28;20041;-80
2023/08/22 10:28:42;;;;;;;5.28;4.78;;;36.30;58.30;;;;;;5014701;28;20018;-80
2023/08/22 10:31:08;;;;;;;7.65;6.05;;;36.40;58.30;;;;;;5002839;28;20030;-80
2023/08/22 10:33:34;;;;;;;5.63;4.75;;;36.40;57.90;;;;;;4998460;28;20030;-80
2023/08/22 10:36:29;;;;;;;4.95;4.38;;;36.50;59.10;;;;;;5014491;28;20109;-80
2023/08/22 10:38:57;;;;;;;5.00;4.50;;;36.60;58.90;;;;;;4994821;28;20069;-80
2023/08/22 10:41:53;;;;;;;4.97;4.47;;;36.80;58.80;;;;;;4997275;28;20089;-80
2023/08/22 10:44:26;;;;;;;6.60;4.40;;;37.00;59.00;;;;;;5014199;28;20382;-80
2023/08/22 10:47:03;;;;;;;6.68;4.97;;;37.20;59.10;;;;;;5014221;28;20032;-80
2023/08/22 10:49:32;;;;;;;4.75;4.30;;;37.30;58.20;;;;;;5003376;28;20022;-80
2023/08/22 10:52:08;;;;;;;5.15;4.22;;;37.50;58.00;;;;;;5007857;28;20029;-80
2023/08/22 10:54:53;;;;;;;5.22;4.72;;;37.70;57.10;;;;;;5009607;28;20038;-80
2023/08/22 10:57:19;;;;;;;5.90;4.38;;;37.80;57.20;;;;;;4994563;28;20645;-80
2023/08/22 10:59:54;;;;;;;6.13;4.25;;;37.90;56.90;;;;;;4994473;28;20101;-80
2023/08/22 11:02:20;;;;;;;4.68;4.07;;;38.00;56.30;;;;;;4977266;28;20037;-80
2023/08/22 11:04:47;;;;;;;4.78;4.38;;;38.20;56.70;;;;;;4975154;28;20094;-80
2023/08/22 11:07:13;;;;;;;4.80;4.40;;;38.30;55.30;;;;;;4975347;28;20026;-80
2023/08/22 11:09:39;;;;;;;5.45;4.78;;;38.30;56.10;;;;;;4974916;28;20098;-81
2023/08/22 11:12:31;;;;;;;5.35;4.72;;;38.40;55.40;;;;;;4974950;28;20055;-81
2023/08/22 11:14:57;;;;;;;4.65;4.20;;;38.40;52.40;;;;;;5003150;28;20048;-80
2023/08/22 11:17:24;;;;;;;5.68;4.45;;;38.40;54.70;;;;;;5013424;28;20509;-80
2023/08/22 11:19:52;;;;;;;5.10;4.20;;;38.50;54.30;;;;;;5013786;28;20026;-81
2023/08/22 11:22:18;;;;;;;3.93;3.53;;;38.70;53.70;;;;;;4996206;28;20478;-81
2023/08/22 11:24:46;;;;;;;4.57;4.15;;;38.90;54.10;;;;;;5013377;28;20030;-81
2023/08/22 11:27:15;;;;;;;4.40;4.00;;;39.10;53.30;;;;;;5013650;28;20030;-81
2023/08/22 11:29:44;;;;;;;4.28;3.90;;;39.30;53.20;;;;;;5013427;28;20109;-81
2023/08/22 11:32:30;;;;;;;3.83;3.43;;;39.60;53.00;;;;;;5013742;28;20105;-81
2023/08/22 11:35:03;;;;;;;4.28;3.88;;;39.90;52.50;;;;;;5013644;28;20323;-80
2023/08/22 11:37:30;;;;;;;5.75;3.38;;;40.00;50.80;;;;;;5004257;28;20030;-81
2023/08/22 11:40:00;;;;;;;4.80;3.70;;;40.30;50.60;;;;;;4993656;28;20427;-80
2023/08/22 11:42:32;;;;;;;4.80;3.85;;;40.40;49.60;;;;;;4993845;28;20103;-81
2023/08/22 11:45:03;;;;;;;4.70;3.60;;;40.70;49.50;;;;;;5005199;28;20383;-81
2023/08/22 11:47:56;;;;;;;3.97;3.67;;;41.00;49.60;;;;;;4996383;28;20030;-81
2023/08/22 11:50:29;;;;;;;3.50;3.20;;;41.30;47.90;;;;;;4986088;28;20070;-81
2023/08/22 11:53:07;;;;;;;3.58;3.28;;;41.50;47.40;;;;;;4973621;28;20062;-81
2023/08/22 11:55:33;;;;;;;3.90;3.40;;;41.70;47.10;;;;;;4957017;28;20113;-81
2023/08/22 11:58:04;;;;;;;5.20;3.55;;;41.80;47.10;;;;;;4974044;28;20546;-81
2023/08/22 12:00:34;;;;;;;4.82;3.83;;;42.00;47.10;;;;;;4956789;28;20042;-81
2023/08/22 12:03:02;;;;;;;4.05;3.63;;;42.10;47.00;;;;;;4974124;28;20037;-81
2023/08/22 12:05:33;;;;;;;4.32;3.60;;;42.30;47.40;;;;;;4973785;28;20026;-81
2023/08/22 12:08:06;;;;;;;4.20;3.80;;;42.50;46.80;;;;;;4994292;28;20068;-81
2023/08/22 12:10:47;;;;;;;6.47;4.35;;;42.70;46.80;;;;;;5007254;28;20057;-82
2023/08/22 12:13:15;;;;;;;3.88;3.58;;;42.80;46.00;;;;;;4993652;28;20022;-81
2023/08/22 12:15:41;;;;;;;4.37;3.33;;;43.00;45.00;;;;;;5007281;28;20030;-80
2023/08/22 12:18:08;;;;;;;8.38;4.10;;;43.10;44.30;;;;;;5011598;28;20864;-81
2023/08/22 12:20:35;;;;;;;6.85;3.80;;;43.20;44.20;;;;;;4993888;28;20030;-81
2023/08/22 12:23:01;;;;;;;3.85;2.95;;;43.20;43.50;;;;;;4993436;28;20022;-81
2023/08/22 12:25:27;;;;;;;3.35;3.05;;;43.30;43.40;;;;;;4994027;28;20057;-82
2023/08/22 12:27:53;;;;;;;47.78;43.10;;;43.30;43.30;;;;;;5004142;28;20038;-84
2023/08/22 12:30:19;;;;;;;83.53;74.93;;;43.30;42.40;;;;;;4992723;28;20073;-85
2023/08/22 12:32:45;;;;;;;13.63;12.35;;;43.20;43.20;;;;;;4991966;28;20101;-85
2023/08/22 12:35:12;;;;;;;6.65;4.57;;;43.20;42.40;;;;;;5011564;28;20038;-84
2023/08/22 12:37:38;;;;;;;4.57;2.97;;;43.10;42.70;;;;;;4991702;28;20049;-85
2023/08/22 12:40:10;;;;;;;3.47;3.17;;;43.00;42.60;;;;;;4996819;28;20042;-86
2023/08/22 12:42:41;;;;;;;3.40;3.20;;;43.00;42.40;;;;;;4995123;28;20053;-86
2023/08/22 12:45:08;;;;;;;2.80;2.60;;;43.00;43.20;;;;;;5012404;28;20022;-85
2023/08/22 12:47:38;;;;;;;3.75;2.80;;;43.00;43.30;;;;;;5013262;28;20041;-86
2023/08/22 12:50:05;;;;;;;3.55;3.10;;;42.90;43.60;;;;;;5001081;28;20038;-86
2023/08/22 12:52:30;;;;;;;4.88;3.05;;;43.00;43.10;;;;;;5007260;28;20030;-86
2023/08/22 12:54:56;;;;;;;3.58;2.97;;;43.00;43.00;;;;;;5012248;28;20030;-81
2023/08/22 12:57:22;;;;;;;3.78;3.08;;;43.10;43.10;;;;;;4993332;28;20041;-87
2023/08/22 12:59:47;;;;;;;3.63;3.28;;;43.00;42.00;;;;;;4999051;28;20399;-86
2023/08/22 13:02:13;;;;;;;3.30;3.00;;;43.00;41.60;;;;;;4999815;28;20371;-80
2023/08/22 13:04:39;;;;;;;4.55;3.10;;;42.90;41.20;;;;;;5004839;28;20023;-80
2023/08/22 13:07:05;;;;;;;5.70;3.50;;;42.90;40.40;;;;;;5006902;28;20083;-80